Terminal Aerodrome Forecast
Issued by NWS Upton, NY

Current Version | Previous Version | Text Only | Print | Product List | Glossary On
Versions: 1 2 3 4 5 6 7 8 9 10 11 12 13 14 15 16 17 18 19 20 21 22 23 24 25 26 27 28 29 30 31 32 33 34 35 36 37
000 FTUS41 KOKX 031433 AAA TAFISP TAF AMD KISP 031433Z 0315/0412 31019G28KT P6SM BKN050 FM032100 31014G23KT P6SM SCT040 FM040000 32012KT P6SM FEW040 FM040600 33009KT P6SM FEW040=

USA.gov is the U.S. government's official web portal to all federal, state and local government web resources and services.